BAW1256 EGLL-LXGB
Flight info
| Callsign | BAW1256 |
|---|---|
| Flight time | 2h 27m |
| Altitude | 39000 |
| Route | GASGU N866 SAM M195 MARUK N621 LELNA DCT ERCOZ DCT NOVAN DCT DELOG DCT CRISA DCT VULPE DCT MAR N864 PIMOS |
| Aircraft | A319/M-SDE3FGHIRWY/LB1 |
Departure
| Time | 2026-05-06 13:00 |
|---|---|
| Airport | London Heathrow Airport (EGLL) |
Arrival
| Time | 2026-05-06 15:27 |
|---|---|
| Airport | Gibraltar Airport (LXGB) |
| Time | Latitude | Longitude | Altitude | Speed | Heading |
|---|---|---|---|---|---|
| 2026-05-06 12:26 | 51.47340 | -0.44222 | 85 ft | 0 kts | 270° |
| 2026-05-06 12:44 | 51.47340 | -0.44221 | 85 ft | 1 kts | 270° |
| 2026-05-06 12:44 | 51.47340 | -0.44198 | 85 ft | 2 kts | 270° |
| 2026-05-06 12:44 | 51.47340 | -0.44174 | 85 ft | 2 kts | 270° |
| 2026-05-06 12:44 | 51.47340 | -0.44150 | 85 ft | 2 kts | 270° |
| 2026-05-06 12:45 | 51.47340 | -0.44126 | 85 ft | 2 kts | 270° |
| 2026-05-06 12:45 | 51.47340 | -0.44101 | 85 ft | 2 kts | 270° |
| 2026-05-06 12:45 | 51.47340 | -0.44067 | 85 ft | 0 kts | 257° |
| 2026-05-06 12:46 | 51.47343 | -0.44060 | 85 ft | 0 kts | 198° |
| 2026-05-06 12:46 | 51.47348 | -0.44059 | 85 ft | 1 kts | 172° |
| 2026-05-06 12:46 | 51.47351 | -0.44060 | 85 ft | 0 kts | 179° |
| 2026-05-06 12:51 | 51.47316 | -0.44060 | 85 ft | 2 kts | 180° |
| 2026-05-06 12:52 | 51.47304 | -0.44060 | 85 ft | 0 kts | 180° |
| 2026-05-06 12:52 | 51.47260 | -0.44060 | 85 ft | 12 kts | 180° |
| 2026-05-06 12:53 | 51.47150 | -0.44059 | 85 ft | 17 kts | 180° |
| 2026-05-06 12:53 | 51.47024 | -0.44057 | 85 ft | 18 kts | 180° |
| 2026-05-06 12:53 | 51.46910 | -0.44056 | 85 ft | 11 kts | 179° |
| 2026-05-06 12:53 | 51.46855 | -0.44055 | 84 ft | 5 kts | 180° |
| 2026-05-06 12:54 | 51.46836 | -0.44055 | 84 ft | 3 kts | 180° |
| 2026-05-06 12:54 | 51.46767 | -0.44054 | 84 ft | 17 kts | 179° |
| 2026-05-06 12:54 | 51.46666 | -0.44130 | 84 ft | 18 kts | 263° |
| 2026-05-06 12:54 | 51.46664 | -0.44344 | 84 ft | 19 kts | 269° |
| 2026-05-06 12:55 | 51.46664 | -0.44562 | 84 ft | 20 kts | 270° |
| 2026-05-06 12:55 | 51.46663 | -0.44791 | 84 ft | 20 kts | 270° |
| 2026-05-06 12:55 | 51.46664 | -0.45023 | 84 ft | 21 kts | 269° |
| 2026-05-06 12:55 | 51.46661 | -0.45258 | 85 ft | 21 kts | 270° |
| 2026-05-06 12:56 | 51.46661 | -0.45500 | 85 ft | 21 kts | 270° |
| 2026-05-06 12:56 | 51.46660 | -0.45741 | 85 ft | 22 kts | 270° |
| 2026-05-06 12:56 | 51.46659 | -0.45992 | 85 ft | 22 kts | 270° |
| 2026-05-06 12:56 | 51.46658 | -0.46240 | 85 ft | 22 kts | 270° |
| 2026-05-06 12:57 | 51.46657 | -0.46497 | 85 ft | 23 kts | 270° |
| 2026-05-06 12:57 | 51.46657 | -0.46753 | 85 ft | 23 kts | 269° |
| 2026-05-06 12:57 | 51.46656 | -0.47014 | 85 ft | 23 kts | 270° |
| 2026-05-06 12:57 | 51.46655 | -0.47274 | 85 ft | 23 kts | 270° |
| 2026-05-06 12:58 | 51.46653 | -0.47538 | 85 ft | 23 kts | 271° |
| 2026-05-06 12:58 | 51.46653 | -0.47801 | 85 ft | 23 kts | 271° |
| 2026-05-06 12:58 | 51.46653 | -0.48063 | 85 ft | 22 kts | 270° |
| 2026-05-06 12:58 | 51.46617 | -0.48211 | 85 ft | 15 kts | 195° |
| 2026-05-06 12:59 | 51.46505 | -0.48204 | 85 ft | 16 kts | 154° |
| 2026-05-06 12:59 | 51.46479 | -0.47858 | 84 ft | 66 kts | 89° |
| 2026-05-06 12:59 | 51.46484 | -0.46694 | 86 ft | 139 kts | 87° |
| 2026-05-06 12:59 | 51.46492 | -0.44943 | 388 ft | 170 kts | 88° |
| 2026-05-06 13:00 | 51.46471 | -0.43128 | 1290 ft | 164 kts | 85° |
| 2026-05-06 13:00 | 51.46392 | -0.41393 | 2164 ft | 163 kts | 101° |
| 2026-05-06 13:00 | 51.45820 | -0.39728 | 2636 ft | 182 kts | 124° |
| 2026-05-06 13:00 | 51.45025 | -0.38057 | 3070 ft | 198 kts | 121° |
| 2026-05-06 13:01 | 51.44209 | -0.36131 | 3501 ft | 220 kts | 120° |
| 2026-05-06 13:01 | 51.43192 | -0.34218 | 4008 ft | 243 kts | 144° |
| 2026-05-06 13:01 | 51.41521 | -0.33347 | 4564 ft | 265 kts | 175° |
| 2026-05-06 13:01 | 51.39628 | -0.33325 | 5216 ft | 280 kts | 184° |
| 2026-05-06 13:02 | 51.37769 | -0.34059 | 5729 ft | 282 kts | 208° |
| 2026-05-06 13:02 | 51.36193 | -0.35907 | 5974 ft | 281 kts | 224° |
| 2026-05-06 13:02 | 51.34791 | -0.38106 | 5977 ft | 280 kts | 227° |
| 2026-05-06 13:02 | 51.33419 | -0.40296 | 5973 ft | 280 kts | 226° |
| 2026-05-06 13:03 | 51.31987 | -0.42375 | 5973 ft | 281 kts | 220° |
| 2026-05-06 13:03 | 51.30470 | -0.44330 | 6003 ft | 284 kts | 229° |
| 2026-05-06 13:03 | 51.29488 | -0.47087 | 6540 ft | 289 kts | 257° |
| 2026-05-06 13:03 | 51.29136 | -0.50146 | 7767 ft | 283 kts | 263° |
| 2026-05-06 13:04 | 51.28791 | -0.53167 | 8853 ft | 282 kts | 261° |
| 2026-05-06 13:04 | 51.28354 | -0.56213 | 9797 ft | 286 kts | 258° |
| 2026-05-06 13:04 | 51.27828 | -0.59284 | 10627 ft | 292 kts | 256° |
| 2026-05-06 13:04 | 51.27226 | -0.62474 | 11131 ft | 310 kts | 255° |
| 2026-05-06 13:05 | 51.26579 | -0.65803 | 11772 ft | 320 kts | 254° |
| 2026-05-06 13:05 | 51.25918 | -0.69183 | 12600 ft | 323 kts | 254° |
| 2026-05-06 13:05 | 51.25257 | -0.72567 | 13412 ft | 326 kts | 254° |
| 2026-05-06 13:05 | 51.24579 | -0.76031 | 14200 ft | 330 kts | 254° |
| 2026-05-06 13:06 | 51.23898 | -0.79516 | 14971 ft | 333 kts | 253° |
| 2026-05-06 13:06 | 51.23206 | -0.83045 | 15726 ft | 337 kts | 253° |
| 2026-05-06 13:06 | 51.22506 | -0.86603 | 16466 ft | 340 kts | 253° |
| 2026-05-06 13:06 | 51.21796 | -0.90212 | 17205 ft | 343 kts | 253° |
| 2026-05-06 13:07 | 51.21014 | -0.93753 | 17914 ft | 347 kts | 246° |
| 2026-05-06 13:07 | 51.19775 | -0.97088 | 18636 ft | 351 kts | 234° |
| 2026-05-06 13:07 | 51.18142 | -0.99972 | 19337 ft | 354 kts | 226° |
| 2026-05-06 13:07 | 51.16394 | -1.02667 | 19999 ft | 357 kts | 225° |
| 2026-05-06 13:08 | 51.14591 | -1.05399 | 20644 ft | 361 kts | 225° |
| 2026-05-06 13:08 | 51.12770 | -1.08161 | 21277 ft | 364 kts | 225° |
| 2026-05-06 13:08 | 51.10950 | -1.10934 | 21889 ft | 367 kts | 225° |
| 2026-05-06 13:08 | 51.09109 | -1.13748 | 22491 ft | 370 kts | 225° |
| 2026-05-06 13:09 | 51.07240 | -1.16606 | 23077 ft | 373 kts | 225° |
| 2026-05-06 13:09 | 51.05383 | -1.19447 | 23639 ft | 376 kts | 225° |
| 2026-05-06 13:09 | 51.03497 | -1.22328 | 24203 ft | 379 kts | 225° |
| 2026-05-06 13:09 | 51.01586 | -1.25244 | 24743 ft | 383 kts | 225° |
| 2026-05-06 13:10 | 50.99661 | -1.28180 | 25259 ft | 387 kts | 225° |
| 2026-05-06 13:10 | 50.97712 | -1.31131 | 25758 ft | 391 kts | 224° |
| 2026-05-06 13:10 | 50.95673 | -1.33936 | 26251 ft | 394 kts | 220° |
| 2026-05-06 13:10 | 50.93484 | -1.36570 | 26746 ft | 398 kts | 217° |
| 2026-05-06 13:11 | 50.91172 | -1.39028 | 27229 ft | 401 kts | 215° |
| 2026-05-06 13:11 | 50.88861 | -1.41430 | 27691 ft | 404 kts | 215° |
| 2026-05-06 13:11 | 50.86494 | -1.43887 | 28149 ft | 407 kts | 215° |
| 2026-05-06 13:11 | 50.84127 | -1.46342 | 28582 ft | 410 kts | 215° |
| 2026-05-06 13:12 | 50.81755 | -1.48801 | 29002 ft | 413 kts | 215° |
| 2026-05-06 13:12 | 50.79347 | -1.51297 | 29420 ft | 416 kts | 215° |
| 2026-05-06 13:12 | 50.76939 | -1.53791 | 29827 ft | 419 kts | 215° |
| 2026-05-06 13:12 | 50.74493 | -1.56320 | 30219 ft | 422 kts | 215° |
| 2026-05-06 13:13 | 50.72029 | -1.58866 | 30605 ft | 425 kts | 215° |
| 2026-05-06 13:13 | 50.69561 | -1.61414 | 30970 ft | 427 kts | 215° |
| 2026-05-06 13:13 | 50.67069 | -1.63982 | 31323 ft | 430 kts | 215° |
| 2026-05-06 13:13 | 50.64598 | -1.66525 | 31680 ft | 432 kts | 214° |
| 2026-05-06 13:14 | 50.62070 | -1.69123 | 32046 ft | 434 kts | 214° |
| 2026-05-06 13:14 | 50.59552 | -1.71707 | 32537 ft | 433 kts | 214° |
| 2026-05-06 13:14 | 50.57029 | -1.74294 | 33054 ft | 431 kts | 214° |
| 2026-05-06 13:14 | 50.54529 | -1.76852 | 33519 ft | 430 kts | 214° |
| 2026-05-06 13:15 | 50.52051 | -1.79385 | 33955 ft | 430 kts | 214° |
| 2026-05-06 13:15 | 50.49547 | -1.81940 | 34382 ft | 429 kts | 214° |
| 2026-05-06 13:15 | 50.47058 | -1.84477 | 34788 ft | 429 kts | 214° |
| 2026-05-06 13:15 | 50.44561 | -1.87019 | 35153 ft | 428 kts | 214° |
| 2026-05-06 13:16 | 50.42076 | -1.89547 | 35477 ft | 427 kts | 214° |
| 2026-05-06 13:16 | 50.39608 | -1.92056 | 35788 ft | 426 kts | 214° |
| 2026-05-06 13:16 | 50.37152 | -1.94548 | 36082 ft | 425 kts | 214° |
| 2026-05-06 13:16 | 50.34670 | -1.97062 | 36360 ft | 425 kts | 214° |
| 2026-05-06 13:17 | 50.32198 | -1.99564 | 36623 ft | 424 kts | 214° |
| 2026-05-06 13:17 | 50.29666 | -2.01898 | 36867 ft | 425 kts | 210° |
| 2026-05-06 13:17 | 50.27017 | -2.03907 | 37103 ft | 426 kts | 205° |
| 2026-05-06 13:17 | 50.24253 | -2.05580 | 37314 ft | 427 kts | 200° |
| 2026-05-06 13:18 | 50.21394 | -2.06900 | 37495 ft | 429 kts | 195° |
| 2026-05-06 13:18 | 50.18481 | -2.07845 | 37663 ft | 432 kts | 191° |
| 2026-05-06 13:18 | 50.15506 | -2.08418 | 37839 ft | 433 kts | 186° |
| 2026-05-06 13:18 | 50.12528 | -2.08806 | 38018 ft | 434 kts | 186° |
| 2026-05-06 13:19 | 50.09514 | -2.09186 | 38190 ft | 435 kts | 186° |
| 2026-05-06 13:19 | 50.06523 | -2.09594 | 38351 ft | 436 kts | 188° |
| 2026-05-06 13:19 | 50.03505 | -2.10281 | 38498 ft | 436 kts | 192° |
| 2026-05-06 13:19 | 50.00569 | -2.11306 | 38643 ft | 436 kts | 197° |
| 2026-05-06 13:20 | 49.97700 | -2.12669 | 38791 ft | 436 kts | 201° |
| 2026-05-06 13:20 | 49.94856 | -2.14398 | 38942 ft | 435 kts | 205° |
| 2026-05-06 13:20 | 49.92158 | -2.16415 | 39007 ft | 438 kts | 210° |
| 2026-05-06 13:21 | 49.86895 | -2.21239 | 39010 ft | 447 kts | 213° |
| 2026-05-06 13:21 | 49.81569 | -2.26254 | 39012 ft | 453 kts | 213° |
| 2026-05-06 13:22 | 49.76182 | -2.31297 | 39013 ft | 453 kts | 212° |
| 2026-05-06 13:22 | 49.70821 | -2.36296 | 39007 ft | 453 kts | 212° |
| 2026-05-06 13:23 | 49.65438 | -2.41300 | 39003 ft | 454 kts | 212° |
| 2026-05-06 13:23 | 49.60049 | -2.46295 | 38998 ft | 454 kts | 212° |
| 2026-05-06 13:24 | 49.54651 | -2.51286 | 38999 ft | 454 kts | 213° |
| 2026-05-06 13:24 | 49.49243 | -2.56274 | 38993 ft | 454 kts | 213° |
| 2026-05-06 13:25 | 49.43839 | -2.61246 | 38991 ft | 454 kts | 212° |
| 2026-05-06 13:25 | 49.38440 | -2.66199 | 38989 ft | 454 kts | 212° |
| 2026-05-06 13:26 | 49.33066 | -2.71115 | 38993 ft | 454 kts | 212° |
| 2026-05-06 13:26 | 49.27636 | -2.76070 | 38986 ft | 455 kts | 212° |
| 2026-05-06 13:27 | 49.22192 | -2.81026 | 38983 ft | 455 kts | 212° |
| 2026-05-06 13:27 | 49.16772 | -2.85949 | 38980 ft | 455 kts | 212° |
| 2026-05-06 13:28 | 49.11348 | -2.90860 | 38983 ft | 455 kts | 212° |
| 2026-05-06 13:28 | 49.05920 | -2.95763 | 38971 ft | 455 kts | 212° |
| 2026-05-06 13:29 | 49.00508 | -3.00639 | 38973 ft | 455 kts | 212° |
| 2026-05-06 13:29 | 48.95065 | -3.05532 | 38972 ft | 455 kts | 212° |
| 2026-05-06 13:30 | 48.89636 | -3.10398 | 38969 ft | 455 kts | 212° |
| 2026-05-06 13:30 | 48.84203 | -3.15257 | 38967 ft | 455 kts | 212° |
| 2026-05-06 13:31 | 48.78758 | -3.20113 | 38970 ft | 456 kts | 212° |
| 2026-05-06 13:31 | 48.73302 | -3.24966 | 38967 ft | 455 kts | 212° |
| 2026-05-06 13:32 | 48.67851 | -3.29806 | 38967 ft | 455 kts | 212° |
| 2026-05-06 13:32 | 48.62420 | -3.34612 | 38971 ft | 454 kts | 212° |
| 2026-05-06 13:33 | 48.56995 | -3.39403 | 38966 ft | 455 kts | 212° |
| 2026-05-06 13:33 | 48.51538 | -3.44211 | 38958 ft | 455 kts | 212° |
| 2026-05-06 13:34 | 48.46061 | -3.49023 | 38955 ft | 456 kts | 212° |
| 2026-05-06 13:34 | 48.40616 | -3.53738 | 38957 ft | 456 kts | 210° |
| 2026-05-06 13:35 | 48.34777 | -3.57542 | 38954 ft | 457 kts | 200° |
| 2026-05-06 13:35 | 48.28625 | -3.59903 | 38951 ft | 459 kts | 191° |
| 2026-05-06 13:36 | 48.22315 | -3.60794 | 38956 ft | 461 kts | 184° |
| 2026-05-06 13:36 | 48.15921 | -3.61097 | 38954 ft | 461 kts | 183° |
| 2026-05-06 13:37 | 48.09528 | -3.61394 | 38950 ft | 461 kts | 184° |
| 2026-05-06 13:37 | 48.03105 | -3.61704 | 38952 ft | 462 kts | 184° |
| 2026-05-06 13:38 | 47.96734 | -3.62018 | 38948 ft | 462 kts | 184° |
| 2026-05-06 13:38 | 47.90328 | -3.62334 | 38950 ft | 461 kts | 184° |
| 2026-05-06 13:39 | 47.83923 | -3.62649 | 38957 ft | 461 kts | 184° |
| 2026-05-06 13:39 | 47.77540 | -3.62962 | 38953 ft | 461 kts | 184° |
| 2026-05-06 13:40 | 47.71141 | -3.63275 | 38957 ft | 461 kts | 184° |
| 2026-05-06 13:40 | 47.64756 | -3.63589 | 38961 ft | 462 kts | 184° |
| 2026-05-06 13:41 | 47.58321 | -3.63903 | 38961 ft | 462 kts | 184° |
| 2026-05-06 13:41 | 47.51918 | -3.64213 | 38962 ft | 462 kts | 184° |
| 2026-05-06 13:42 | 47.45530 | -3.64523 | 38958 ft | 462 kts | 184° |
| 2026-05-06 13:42 | 47.39125 | -3.64832 | 38972 ft | 462 kts | 184° |
| 2026-05-06 13:43 | 47.32720 | -3.65142 | 38972 ft | 462 kts | 183° |
| 2026-05-06 13:43 | 47.26309 | -3.65451 | 38973 ft | 462 kts | 183° |
| 2026-05-06 13:44 | 47.19897 | -3.65760 | 38981 ft | 463 kts | 183° |
| 2026-05-06 13:44 | 47.13513 | -3.66066 | 38974 ft | 463 kts | 183° |
| 2026-05-06 13:45 | 47.07095 | -3.66374 | 38984 ft | 463 kts | 183° |
| 2026-05-06 13:45 | 46.97455 | -3.66831 | 38980 ft | 463 kts | 183° |
| 2026-05-06 13:46 | 46.91003 | -3.67137 | 38983 ft | 463 kts | 183° |
| 2026-05-06 13:46 | 46.84612 | -3.67442 | 38989 ft | 463 kts | 183° |
| 2026-05-06 13:47 | 46.78174 | -3.67746 | 38983 ft | 463 kts | 183° |
| 2026-05-06 13:47 | 46.71773 | -3.68049 | 38984 ft | 463 kts | 183° |
| 2026-05-06 13:48 | 46.65317 | -3.68353 | 38985 ft | 463 kts | 183° |
| 2026-05-06 13:48 | 46.58912 | -3.68654 | 38978 ft | 463 kts | 183° |
| 2026-05-06 13:49 | 46.52481 | -3.68955 | 38981 ft | 464 kts | 183° |
| 2026-05-06 13:49 | 46.46037 | -3.69257 | 38978 ft | 464 kts | 183° |
| 2026-05-06 13:50 | 46.39630 | -3.69556 | 38979 ft | 464 kts | 183° |
| 2026-05-06 13:50 | 46.33189 | -3.69871 | 38982 ft | 463 kts | 184° |
| 2026-05-06 13:51 | 46.26790 | -3.70710 | 38975 ft | 463 kts | 187° |
| 2026-05-06 13:51 | 46.20431 | -3.71660 | 38989 ft | 463 kts | 187° |
| 2026-05-06 13:52 | 46.14046 | -3.72612 | 38984 ft | 463 kts | 187° |
| 2026-05-06 13:52 | 46.07631 | -3.73564 | 38983 ft | 463 kts | 187° |
| 2026-05-06 13:53 | 46.01276 | -3.74507 | 38986 ft | 463 kts | 187° |
| 2026-05-06 13:53 | 45.94854 | -3.75459 | 38991 ft | 463 kts | 187° |
| 2026-05-06 13:54 | 45.88480 | -3.76401 | 38985 ft | 463 kts | 187° |
| 2026-05-06 13:54 | 45.82104 | -3.77339 | 38993 ft | 463 kts | 187° |
| 2026-05-06 13:55 | 45.75700 | -3.78279 | 38986 ft | 463 kts | 187° |
| 2026-05-06 13:55 | 45.69329 | -3.79213 | 38995 ft | 463 kts | 187° |
| 2026-05-06 13:56 | 45.62911 | -3.80154 | 38993 ft | 464 kts | 187° |
| 2026-05-06 13:56 | 45.56532 | -3.81085 | 38994 ft | 463 kts | 187° |
| 2026-05-06 13:57 | 45.50121 | -3.82019 | 39000 ft | 463 kts | 187° |
| 2026-05-06 13:57 | 45.43746 | -3.82946 | 39001 ft | 463 kts | 187° |
| 2026-05-06 13:58 | 45.37333 | -3.83876 | 39001 ft | 463 kts | 187° |
| 2026-05-06 13:58 | 45.30969 | -3.84796 | 39008 ft | 463 kts | 187° |
| 2026-05-06 13:59 | 45.24534 | -3.85724 | 39009 ft | 464 kts | 187° |
| 2026-05-06 13:59 | 45.18164 | -3.86642 | 39005 ft | 464 kts | 188° |
| 2026-05-06 14:00 | 45.11727 | -3.87567 | 39008 ft | 464 kts | 188° |
| 2026-05-06 14:00 | 45.05350 | -3.88482 | 39015 ft | 463 kts | 188° |
| 2026-05-06 14:01 | 44.98964 | -3.89395 | 39008 ft | 463 kts | 188° |
| 2026-05-06 14:01 | 44.92569 | -3.90308 | 39011 ft | 463 kts | 188° |
| 2026-05-06 14:02 | 44.86151 | -3.91222 | 39013 ft | 464 kts | 188° |
| 2026-05-06 14:02 | 44.79753 | -3.92132 | 39013 ft | 464 kts | 188° |
| 2026-05-06 14:03 | 44.73356 | -3.93038 | 39012 ft | 463 kts | 188° |
| 2026-05-06 14:03 | 44.66959 | -3.93944 | 39012 ft | 463 kts | 188° |
| 2026-05-06 14:04 | 44.60576 | -3.94844 | 39008 ft | 462 kts | 188° |
| 2026-05-06 14:04 | 44.54182 | -3.95745 | 39008 ft | 462 kts | 188° |
| 2026-05-06 14:05 | 44.47795 | -3.96643 | 39005 ft | 462 kts | 188° |
| 2026-05-06 14:05 | 44.41437 | -3.97535 | 39004 ft | 462 kts | 188° |
| 2026-05-06 14:06 | 44.35032 | -3.98432 | 39000 ft | 462 kts | 188° |
| 2026-05-06 14:06 | 44.28671 | -3.99251 | 39001 ft | 462 kts | 187° |
| 2026-05-06 14:07 | 44.22288 | -3.99967 | 38996 ft | 461 kts | 187° |
| 2026-05-06 14:07 | 44.15898 | -4.00684 | 39003 ft | 461 kts | 187° |
| 2026-05-06 14:08 | 44.09520 | -4.01405 | 38994 ft | 461 kts | 187° |
| 2026-05-06 14:08 | 44.03131 | -4.02133 | 38996 ft | 461 kts | 187° |
| 2026-05-06 14:09 | 43.96758 | -4.02857 | 38994 ft | 461 kts | 187° |
| 2026-05-06 14:09 | 43.90390 | -4.03579 | 38993 ft | 460 kts | 187° |
| 2026-05-06 14:10 | 43.84055 | -4.04297 | 38990 ft | 459 kts | 187° |
| 2026-05-06 14:10 | 43.77671 | -4.05018 | 38984 ft | 459 kts | 187° |
| 2026-05-06 14:11 | 43.71310 | -4.05736 | 38990 ft | 460 kts | 187° |
| 2026-05-06 14:11 | 43.64960 | -4.06448 | 38989 ft | 460 kts | 187° |
| 2026-05-06 14:12 | 43.58599 | -4.07162 | 38993 ft | 460 kts | 187° |
| 2026-05-06 14:12 | 43.52234 | -4.07875 | 38993 ft | 459 kts | 187° |
| 2026-05-06 14:13 | 43.45913 | -4.08582 | 38995 ft | 459 kts | 188° |
| 2026-05-06 14:13 | 43.39532 | -4.09294 | 38997 ft | 459 kts | 188° |
| 2026-05-06 14:14 | 43.33227 | -4.09995 | 38997 ft | 459 kts | 188° |
| 2026-05-06 14:14 | 43.26846 | -4.10704 | 38998 ft | 458 kts | 188° |
| 2026-05-06 14:15 | 43.20558 | -4.11401 | 38994 ft | 457 kts | 188° |
| 2026-05-06 14:15 | 43.14207 | -4.12104 | 38988 ft | 457 kts | 188° |
| 2026-05-06 14:16 | 43.07886 | -4.12800 | 38981 ft | 457 kts | 188° |
| 2026-05-06 14:16 | 43.01539 | -4.13500 | 38973 ft | 457 kts | 188° |
| 2026-05-06 14:17 | 42.95232 | -4.14194 | 38969 ft | 457 kts | 188° |
| 2026-05-06 14:17 | 42.88901 | -4.14887 | 38967 ft | 457 kts | 188° |
| 2026-05-06 14:18 | 42.82574 | -4.15581 | 38966 ft | 457 kts | 188° |
| 2026-05-06 14:18 | 42.76285 | -4.16268 | 38967 ft | 456 kts | 188° |
| 2026-05-06 14:19 | 42.69958 | -4.16958 | 38966 ft | 456 kts | 188° |
| 2026-05-06 14:19 | 42.63634 | -4.17645 | 38969 ft | 456 kts | 188° |
| 2026-05-06 14:20 | 42.57327 | -4.18330 | 38971 ft | 456 kts | 188° |
| 2026-05-06 14:20 | 42.51040 | -4.19012 | 38973 ft | 456 kts | 188° |
| 2026-05-06 14:21 | 42.44749 | -4.19692 | 38974 ft | 455 kts | 188° |
| 2026-05-06 14:21 | 42.38410 | -4.20376 | 38972 ft | 455 kts | 188° |
| 2026-05-06 14:22 | 42.32156 | -4.21049 | 38975 ft | 455 kts | 188° |
| 2026-05-06 14:22 | 42.25858 | -4.21726 | 38970 ft | 455 kts | 188° |
| 2026-05-06 14:23 | 42.19531 | -4.22406 | 38961 ft | 455 kts | 188° |
| 2026-05-06 14:23 | 42.13241 | -4.23079 | 38961 ft | 455 kts | 188° |
| 2026-05-06 14:24 | 42.06946 | -4.23751 | 38956 ft | 455 kts | 188° |
| 2026-05-06 14:24 | 42.00670 | -4.24421 | 38960 ft | 454 kts | 188° |
| 2026-05-06 14:25 | 41.94381 | -4.25090 | 38960 ft | 454 kts | 188° |
| 2026-05-06 14:25 | 41.88138 | -4.25752 | 38958 ft | 453 kts | 188° |
| 2026-05-06 14:26 | 41.81874 | -4.26416 | 38961 ft | 452 kts | 188° |
| 2026-05-06 14:26 | 41.75599 | -4.27080 | 38960 ft | 452 kts | 188° |
| 2026-05-06 14:27 | 41.69331 | -4.27742 | 38961 ft | 452 kts | 188° |
| 2026-05-06 14:27 | 41.63084 | -4.28400 | 38961 ft | 451 kts | 188° |
| 2026-05-06 14:28 | 41.56836 | -4.29057 | 38959 ft | 450 kts | 188° |
| 2026-05-06 14:28 | 41.50602 | -4.29711 | 38962 ft | 450 kts | 188° |
| 2026-05-06 14:29 | 41.44377 | -4.30364 | 38961 ft | 450 kts | 188° |
| 2026-05-06 14:29 | 41.38160 | -4.31014 | 38960 ft | 449 kts | 188° |
| 2026-05-06 14:30 | 41.31942 | -4.31663 | 38960 ft | 450 kts | 188° |
| 2026-05-06 14:30 | 41.25720 | -4.32311 | 38961 ft | 449 kts | 188° |
| 2026-05-06 14:31 | 41.19497 | -4.32958 | 38963 ft | 448 kts | 188° |
| 2026-05-06 14:31 | 41.13286 | -4.33603 | 38961 ft | 448 kts | 188° |
| 2026-05-06 14:32 | 41.07127 | -4.34242 | 38963 ft | 447 kts | 188° |
| 2026-05-06 14:32 | 41.00911 | -4.34882 | 38962 ft | 447 kts | 188° |
| 2026-05-06 14:33 | 40.94751 | -4.35517 | 38967 ft | 447 kts | 189° |
| 2026-05-06 14:33 | 40.88566 | -4.36154 | 38965 ft | 447 kts | 189° |
| 2026-05-06 14:34 | 40.82395 | -4.36789 | 38963 ft | 446 kts | 189° |
| 2026-05-06 14:34 | 40.76205 | -4.37425 | 38959 ft | 445 kts | 189° |
| 2026-05-06 14:35 | 40.70038 | -4.38057 | 38960 ft | 444 kts | 189° |
| 2026-05-06 14:35 | 40.63902 | -4.38684 | 38954 ft | 444 kts | 188° |
| 2026-05-06 14:36 | 40.57772 | -4.39310 | 38952 ft | 445 kts | 189° |
| 2026-05-06 14:36 | 40.51598 | -4.39938 | 38948 ft | 444 kts | 189° |
| 2026-05-06 14:37 | 40.45461 | -4.40562 | 38950 ft | 444 kts | 189° |
| 2026-05-06 14:37 | 40.39325 | -4.41183 | 38940 ft | 443 kts | 189° |
| 2026-05-06 14:38 | 40.33175 | -4.41807 | 38943 ft | 443 kts | 189° |
| 2026-05-06 14:38 | 40.27045 | -4.42427 | 38938 ft | 443 kts | 189° |
| 2026-05-06 14:39 | 40.20919 | -4.43044 | 38927 ft | 442 kts | 189° |
| 2026-05-06 14:39 | 40.14785 | -4.43663 | 38929 ft | 442 kts | 189° |
| 2026-05-06 14:40 | 40.08650 | -4.44280 | 38918 ft | 442 kts | 189° |
| 2026-05-06 14:40 | 40.02550 | -4.44892 | 38913 ft | 441 kts | 189° |
| 2026-05-06 14:41 | 39.96431 | -4.45505 | 38913 ft | 441 kts | 189° |
| 2026-05-06 14:41 | 39.90326 | -4.46115 | 38913 ft | 440 kts | 189° |
| 2026-05-06 14:42 | 39.84265 | -4.46722 | 38913 ft | 440 kts | 189° |
| 2026-05-06 14:42 | 39.78171 | -4.47328 | 38914 ft | 440 kts | 189° |
| 2026-05-06 14:43 | 39.72053 | -4.47937 | 38915 ft | 441 kts | 189° |
| 2026-05-06 14:43 | 39.65972 | -4.48543 | 38916 ft | 440 kts | 189° |
| 2026-05-06 14:44 | 39.59879 | -4.49146 | 38920 ft | 440 kts | 189° |
| 2026-05-06 14:45 | 39.50734 | -4.50049 | 38916 ft | 439 kts | 189° |
| 2026-05-06 14:45 | 39.44644 | -4.50650 | 38915 ft | 439 kts | 189° |
| 2026-05-06 14:46 | 39.38585 | -4.51247 | 38915 ft | 439 kts | 189° |
| 2026-05-06 14:46 | 39.32488 | -4.51847 | 38917 ft | 439 kts | 189° |
| 2026-05-06 14:47 | 39.26419 | -4.52444 | 38914 ft | 438 kts | 189° |
| 2026-05-06 14:47 | 39.20347 | -4.53039 | 38914 ft | 438 kts | 189° |
| 2026-05-06 14:48 | 39.14272 | -4.53633 | 38920 ft | 437 kts | 189° |
| 2026-05-06 14:48 | 39.08228 | -4.54221 | 38924 ft | 436 kts | 189° |
| 2026-05-06 14:49 | 39.02209 | -4.54809 | 38922 ft | 437 kts | 189° |
| 2026-05-06 14:49 | 38.96141 | -4.55401 | 38923 ft | 437 kts | 190° |
| 2026-05-06 14:50 | 38.90138 | -4.56405 | 38921 ft | 433 kts | 194° |
| 2026-05-06 14:50 | 38.84216 | -4.57639 | 38920 ft | 434 kts | 194° |
| 2026-05-06 14:51 | 38.78278 | -4.58871 | 38919 ft | 433 kts | 194° |
| 2026-05-06 14:51 | 38.72325 | -4.60106 | 38917 ft | 433 kts | 194° |
| 2026-05-06 14:52 | 38.66413 | -4.61333 | 38917 ft | 432 kts | 194° |
| 2026-05-06 14:52 | 38.60476 | -4.62562 | 38913 ft | 431 kts | 194° |
| 2026-05-06 14:53 | 38.54559 | -4.63786 | 38912 ft | 430 kts | 194° |
| 2026-05-06 14:53 | 38.48680 | -4.65001 | 38912 ft | 431 kts | 194° |
| 2026-05-06 14:54 | 38.42738 | -4.66225 | 38912 ft | 431 kts | 194° |
| 2026-05-06 14:54 | 38.36836 | -4.67442 | 38910 ft | 431 kts | 194° |
| 2026-05-06 14:55 | 38.30921 | -4.68659 | 38909 ft | 432 kts | 194° |
| 2026-05-06 14:55 | 38.25012 | -4.69871 | 38913 ft | 431 kts | 194° |
| 2026-05-06 14:56 | 38.19065 | -4.71088 | 38911 ft | 431 kts | 194° |
| 2026-05-06 14:56 | 38.13175 | -4.72292 | 38911 ft | 430 kts | 194° |
| 2026-05-06 14:57 | 38.07276 | -4.73496 | 38906 ft | 430 kts | 194° |
| 2026-05-06 14:57 | 38.01404 | -4.74692 | 38905 ft | 430 kts | 194° |
| 2026-05-06 14:58 | 37.95504 | -4.75894 | 38903 ft | 430 kts | 194° |
| 2026-05-06 14:58 | 37.89629 | -4.77086 | 38900 ft | 424 kts | 194° |
| 2026-05-06 14:59 | 37.83916 | -4.78241 | 38896 ft | 413 kts | 194° |
| 2026-05-06 14:59 | 37.78253 | -4.79392 | 38890 ft | 413 kts | 194° |
| 2026-05-06 15:00 | 37.72590 | -4.80539 | 38887 ft | 412 kts | 194° |
| 2026-05-06 15:00 | 37.66950 | -4.81677 | 38888 ft | 411 kts | 194° |
| 2026-05-06 15:01 | 37.61289 | -4.82820 | 38885 ft | 410 kts | 194° |
| 2026-05-06 15:01 | 37.55662 | -4.83952 | 38882 ft | 411 kts | 194° |
| 2026-05-06 15:02 | 37.50040 | -4.85081 | 38442 ft | 410 kts | 194° |
| 2026-05-06 15:02 | 37.47255 | -4.85639 | 38018 ft | 406 kts | 194° |
| 2026-05-06 15:02 | 37.44463 | -4.86197 | 37538 ft | 403 kts | 194° |
| 2026-05-06 15:02 | 37.41721 | -4.86746 | 37050 ft | 400 kts | 195° |
| 2026-05-06 15:03 | 37.38968 | -4.87297 | 36540 ft | 398 kts | 195° |
| 2026-05-06 15:03 | 37.36251 | -4.87841 | 36055 ft | 398 kts | 195° |
| 2026-05-06 15:03 | 37.33532 | -4.88388 | 35556 ft | 399 kts | 195° |
| 2026-05-06 15:03 | 37.30791 | -4.88937 | 34974 ft | 400 kts | 195° |
| 2026-05-06 15:04 | 37.28035 | -4.89489 | 34335 ft | 401 kts | 195° |
| 2026-05-06 15:04 | 37.25287 | -4.90039 | 33623 ft | 401 kts | 194° |
| 2026-05-06 15:04 | 37.22576 | -4.90581 | 32980 ft | 399 kts | 195° |
| 2026-05-06 15:04 | 37.19826 | -4.91129 | 32346 ft | 397 kts | 194° |
| 2026-05-06 15:05 | 37.17114 | -4.91669 | 31714 ft | 395 kts | 194° |
| 2026-05-06 15:05 | 37.14412 | -4.92207 | 31124 ft | 393 kts | 194° |
| 2026-05-06 15:05 | 37.11746 | -4.92734 | 30690 ft | 389 kts | 194° |
| 2026-05-06 15:05 | 37.09082 | -4.93241 | 30201 ft | 388 kts | 193° |
| 2026-05-06 15:06 | 37.06420 | -4.93587 | 29708 ft | 386 kts | 190° |
| 2026-05-06 15:06 | 37.03730 | -4.93752 | 29188 ft | 385 kts | 187° |
| 2026-05-06 15:06 | 37.01043 | -4.93735 | 28665 ft | 384 kts | 184° |
| 2026-05-06 15:06 | 36.98394 | -4.93600 | 28169 ft | 380 kts | 183° |
| 2026-05-06 15:07 | 36.95788 | -4.93468 | 27674 ft | 377 kts | 183° |
| 2026-05-06 15:07 | 36.93183 | -4.93336 | 27201 ft | 373 kts | 184° |
| 2026-05-06 15:07 | 36.90586 | -4.93205 | 26719 ft | 369 kts | 183° |
| 2026-05-06 15:07 | 36.88055 | -4.93076 | 26236 ft | 366 kts | 183° |
| 2026-05-06 15:08 | 36.85523 | -4.92947 | 25738 ft | 363 kts | 182° |
| 2026-05-06 15:08 | 36.82988 | -4.92821 | 24899 ft | 369 kts | 182° |
| 2026-05-06 15:08 | 36.80384 | -4.92694 | 23853 ft | 379 kts | 182° |
| 2026-05-06 15:08 | 36.77759 | -4.92563 | 23019 ft | 383 kts | 181° |
| 2026-05-06 15:09 | 36.75090 | -4.92424 | 22395 ft | 381 kts | 181° |
| 2026-05-06 15:09 | 36.72487 | -4.92289 | 21817 ft | 379 kts | 181° |
| 2026-05-06 15:09 | 36.69832 | -4.92148 | 21222 ft | 377 kts | 181° |
| 2026-05-06 15:09 | 36.67234 | -4.92012 | 20664 ft | 375 kts | 181° |
| 2026-05-06 15:10 | 36.64640 | -4.91879 | 20113 ft | 373 kts | 181° |
| 2026-05-06 15:10 | 36.62063 | -4.91746 | 19590 ft | 370 kts | 181° |
| 2026-05-06 15:10 | 36.59517 | -4.91615 | 19052 ft | 368 kts | 181° |
| 2026-05-06 15:10 | 36.56969 | -4.91486 | 18490 ft | 367 kts | 181° |
| 2026-05-06 15:11 | 36.54422 | -4.91354 | 17953 ft | 365 kts | 181° |
| 2026-05-06 15:11 | 36.51911 | -4.91224 | 17447 ft | 362 kts | 181° |
| 2026-05-06 15:11 | 36.49404 | -4.91097 | 16954 ft | 359 kts | 181° |
| 2026-05-06 15:11 | 36.46898 | -4.90972 | 16451 ft | 357 kts | 180° |
| 2026-05-06 15:12 | 36.44442 | -4.90847 | 15961 ft | 355 kts | 180° |
| 2026-05-06 15:12 | 36.41999 | -4.90723 | 15508 ft | 352 kts | 180° |
| 2026-05-06 15:12 | 36.39565 | -4.90597 | 15026 ft | 350 kts | 180° |
| 2026-05-06 15:12 | 36.37136 | -4.90473 | 14684 ft | 343 kts | 179° |
| 2026-05-06 15:13 | 36.34803 | -4.90351 | 14318 ft | 329 kts | 179° |
| 2026-05-06 15:13 | 36.32564 | -4.90235 | 13670 ft | 320 kts | 179° |
| 2026-05-06 15:13 | 36.30370 | -4.90123 | 12938 ft | 311 kts | 179° |
| 2026-05-06 15:13 | 36.28233 | -4.90012 | 12254 ft | 303 kts | 179° |
| 2026-05-06 15:14 | 36.26182 | -4.89905 | 11600 ft | 295 kts | 179° |
| 2026-05-06 15:14 | 36.24151 | -4.89801 | 10934 ft | 289 kts | 179° |
| 2026-05-06 15:14 | 36.22156 | -4.89699 | 10192 ft | 285 kts | 179° |
| 2026-05-06 15:14 | 36.20187 | -4.89599 | 9437 ft | 283 kts | 178° |
| 2026-05-06 15:15 | 36.18252 | -4.89503 | 8668 ft | 281 kts | 178° |
| 2026-05-06 15:15 | 36.16312 | -4.89423 | 7930 ft | 281 kts | 181° |
| 2026-05-06 15:15 | 36.14411 | -4.89844 | 7146 ft | 281 kts | 200° |
| 2026-05-06 15:15 | 36.12674 | -4.90895 | 6392 ft | 279 kts | 210° |
| 2026-05-06 15:16 | 36.11013 | -4.92092 | 5670 ft | 277 kts | 211° |
| 2026-05-06 15:16 | 36.09352 | -4.93307 | 5008 ft | 272 kts | 211° |
| 2026-05-06 15:16 | 36.07744 | -4.94472 | 4606 ft | 269 kts | 211° |
| 2026-05-06 15:16 | 36.06112 | -4.95642 | 4249 ft | 271 kts | 210° |
| 2026-05-06 15:17 | 36.04482 | -4.96801 | 3908 ft | 273 kts | 210° |
| 2026-05-06 15:17 | 36.02823 | -4.97976 | 3555 ft | 275 kts | 210° |
| 2026-05-06 15:17 | 36.01202 | -4.99192 | 3195 ft | 276 kts | 218° |
| 2026-05-06 15:17 | 36.00097 | -5.01048 | 2978 ft | 267 kts | 252° |
| 2026-05-06 15:18 | 35.99878 | -5.03296 | 2983 ft | 264 kts | 272° |
| 2026-05-06 15:18 | 35.99920 | -5.05545 | 2974 ft | 263 kts | 272° |
| 2026-05-06 15:18 | 35.99959 | -5.07813 | 2966 ft | 263 kts | 272° |
| 2026-05-06 15:18 | 35.99983 | -5.10066 | 2964 ft | 263 kts | 272° |
| 2026-05-06 15:19 | 35.99997 | -5.12343 | 2958 ft | 263 kts | 271° |
| 2026-05-06 15:19 | 36.00005 | -5.14604 | 2967 ft | 263 kts | 271° |
| 2026-05-06 15:19 | 36.00010 | -5.16867 | 2973 ft | 264 kts | 271° |
| 2026-05-06 15:19 | 36.00010 | -5.19104 | 2982 ft | 264 kts | 271° |
| 2026-05-06 15:20 | 36.00010 | -5.21379 | 2983 ft | 264 kts | 271° |
| 2026-05-06 15:20 | 36.00008 | -5.23639 | 2983 ft | 262 kts | 271° |
| 2026-05-06 15:20 | 36.00006 | -5.25822 | 2980 ft | 249 kts | 271° |
| 2026-05-06 15:20 | 36.00000 | -5.27906 | 2979 ft | 235 kts | 271° |
| 2026-05-06 15:21 | 35.99992 | -5.29876 | 2979 ft | 222 kts | 271° |
| 2026-05-06 15:21 | 35.99979 | -5.31705 | 2978 ft | 209 kts | 271° |
| 2026-05-06 15:21 | 35.99964 | -5.33460 | 2979 ft | 198 kts | 271° |
| 2026-05-06 15:21 | 35.99946 | -5.35091 | 3026 ft | 180 kts | 271° |
| 2026-05-06 15:22 | 35.99928 | -5.36564 | 2984 ft | 166 kts | 272° |
| 2026-05-06 15:22 | 36.00150 | -5.37874 | 2902 ft | 150 kts | 307° |
| 2026-05-06 15:22 | 36.00985 | -5.38532 | 2726 ft | 141 kts | 349° |
| 2026-05-06 15:22 | 36.01933 | -5.38716 | 2517 ft | 138 kts | 351° |
| 2026-05-06 15:23 | 36.02874 | -5.38908 | 2203 ft | 138 kts | 350° |
| 2026-05-06 15:23 | 36.03828 | -5.39096 | 1889 ft | 137 kts | 350° |
| 2026-05-06 15:23 | 36.04760 | -5.39270 | 1622 ft | 132 kts | 350° |
| 2026-05-06 15:23 | 36.05649 | -5.39425 | 1454 ft | 127 kts | 350° |
| 2026-05-06 15:24 | 36.06530 | -5.39575 | 1395 ft | 127 kts | 350° |
| 2026-05-06 15:24 | 36.07415 | -5.39693 | 1207 ft | 127 kts | 356° |
| 2026-05-06 15:24 | 36.08299 | -5.39691 | 1015 ft | 127 kts | 359° |
| 2026-05-06 15:24 | 36.09174 | -5.39668 | 887 ft | 125 kts | 359° |
| 2026-05-06 15:25 | 36.10055 | -5.39638 | 887 ft | 126 kts | 359° |
| 2026-05-06 15:25 | 36.10937 | -5.39606 | 886 ft | 126 kts | 359° |
| 2026-05-06 15:25 | 36.11813 | -5.39566 | 814 ft | 126 kts | 0° |
| 2026-05-06 15:25 | 36.12690 | -5.39505 | 762 ft | 126 kts | 1° |
| 2026-05-06 15:26 | 36.13566 | -5.39403 | 758 ft | 126 kts | 4° |
| 2026-05-06 15:26 | 36.14413 | -5.39124 | 630 ft | 128 kts | 23° |
| 2026-05-06 15:26 | 36.15068 | -5.38396 | 446 ft | 130 kts | 63° |
| 2026-05-06 15:26 | 36.15116 | -5.37299 | 252 ft | 131 kts | 99° |
| 2026-05-06 15:27 | 36.15070 | -5.36181 | 91 ft | 130 kts | 86° |
| 2026-05-06 15:27 | 36.15112 | -5.35079 | 20 ft | 115 kts | 88° |
| 2026-05-06 15:27 | 36.15131 | -5.34455 | 19 ft | 42 kts | 85° |
| 2026-05-06 15:27 | 36.15173 | -5.34231 | 17 ft | 18 kts | 16° |
| 2026-05-06 15:28 | 36.15229 | -5.34246 | 17 ft | 9 kts | 311° |
| 2026-05-06 15:28 | 36.15235 | -5.34360 | 18 ft | 14 kts | 267° |
| 2026-05-06 15:28 | 36.15230 | -5.34480 | 20 ft | 13 kts | 268° |
| 2026-05-06 15:28 | 36.15226 | -5.34596 | 21 ft | 9 kts | 266° |
| 2026-05-06 15:29 | 36.15265 | -5.34631 | 22 ft | 8 kts | 10° |
| 2026-05-06 15:29 | 36.15302 | -5.34629 | 22 ft | 1 kts | 358° |